sensor_id;sensor_type;location;lat;lon;timestamp;pressure;altitude;pressure_sealevel;temperature
69597;BMP180;56802;51.184;-115.558;2022-10-22T00:02:09;84872.00;;;5.80
69597;BMP180;56802;51.184;-115.558;2022-10-22T00:04:39;84867.40;;;5.76
69597;BMP180;56802;51.184;-115.558;2022-10-22T00:07:08;84867.40;;;5.70
69597;BMP180;56802;51.184;-115.558;2022-10-22T00:09:37;84867.60;;;5.60
69597;BMP180;56802;51.184;-115.558;2022-10-22T00:12:06;84865.00;;;5.60
69597;BMP180;56802;51.184;-115.558;2022-10-22T00:14:36;84862.20;;;5.58
69597;BMP180;56802;51.184;-115.558;2022-10-22T00:17:06;84862.40;;;5.50
69597;BMP180;56802;51.184;-115.558;2022-10-22T00:19:39;84861.80;;;5.50
69597;BMP180;56802;51.184;-115.558;2022-10-22T00:22:10;84864.00;;;5.50
69597;BMP180;56802;51.184;-115.558;2022-10-22T00:24:40;84861.20;;;5.60
69597;BMP180;56802;51.184;-115.558;2022-10-22T00:27:11;84862.20;;;5.58
69597;BMP180;56802;51.184;-115.558;2022-10-22T00:29:41;84865.80;;;5.54
69597;BMP180;56802;51.184;-115.558;2022-10-22T00:32:10;84865.20;;;5.60
69597;BMP180;56802;51.184;-115.558;2022-10-22T00:34:40;84865.80;;;5.52
69597;BMP180;56802;51.184;-115.558;2022-10-22T00:37:09;84860.00;;;5.50
69597;BMP180;56802;51.184;-115.558;2022-10-22T00:39:39;84853.60;;;5.40
69597;BMP180;56802;51.184;-115.558;2022-10-22T00:42:24;84853.80;;;5.40
69597;BMP180;56802;51.184;-115.558;2022-10-22T00:51:00;84851.60;;;5.26
69597;BMP180;56802;51.184;-115.558;2022-10-22T00:53:52;84860.20;;;5.20
69597;BMP180;56802;51.184;-115.558;2022-10-22T00:56:24;84852.80;;;5.18
69597;BMP180;56802;51.184;-115.558;2022-10-22T00:58:57;84848.00;;;5.10
69597;BMP180;56802;51.184;-115.558;2022-10-22T01:01:30;84846.80;;;5.10
69597;BMP180;56802;51.184;-115.558;2022-10-22T01:04:00;84848.60;;;5.10
69597;BMP180;56802;51.184;-115.558;2022-10-22T01:06:32;84846.00;;;5.10
69597;BMP180;56802;51.184;-115.558;2022-10-22T01:09:38;84845.60;;;5.00
69597;BMP180;56802;51.184;-115.558;2022-10-22T01:12:22;84843.20;;;5.00
69597;BMP180;56802;51.184;-115.558;2022-10-22T01:15:15;84838.20;;;4.90
69597;BMP180;56802;51.184;-115.558;2022-10-22T01:18:14;84836.40;;;4.90
69597;BMP180;56802;51.184;-115.558;2022-10-22T01:21:11;84845.40;;;4.80
69597;BMP180;56802;51.184;-115.558;2022-10-22T01:29:45;84847.00;;;4.74
69597;BMP180;56802;51.184;-115.558;2022-10-22T01:32:24;84853.00;;;4.80
69597;BMP180;56802;51.184;-115.558;2022-10-22T01:35:02;84846.40;;;4.80
69597;BMP180;56802;51.184;-115.558;2022-10-22T01:37:38;84853.20;;;4.80
69597;BMP180;56802;51.184;-115.558;2022-10-22T01:40:11;84853.40;;;4.80
69597;BMP180;56802;51.184;-115.558;2022-10-22T01:42:52;84849.20;;;4.80
69597;BMP180;56802;51.184;-115.558;2022-10-22T01:45:22;84846.20;;;4.80
69597;BMP180;56802;51.184;-115.558;2022-10-22T01:50:59;84844.00;;;4.80
69597;BMP180;56802;51.184;-115.558;2022-10-22T01:59:49;84851.60;;;4.70
69597;BMP180;56802;51.184;-115.558;2022-10-22T02:02:35;84847.00;;;4.62
69597;BMP180;56802;51.184;-115.558;2022-10-22T02:08:19;84847.20;;;4.60
69597;BMP180;56802;51.184;-115.558;2022-10-22T02:10:50;84849.40;;;4.60
69597;BMP180;56802;51.184;-115.558;2022-10-22T02:13:47;84848.00;;;4.50
69597;BMP180;56802;51.184;-115.558;2022-10-22T02:16:35;84851.00;;;4.50
69597;BMP180;56802;51.184;-115.558;2022-10-22T02:19:27;84845.00;;;4.48
69597;BMP180;56802;51.184;-115.558;2022-10-22T02:21:57;84846.20;;;4.50
69597;BMP180;56802;51.184;-115.558;2022-10-22T02:24:28;84845.60;;;4.50
69597;BMP180;56802;51.184;-115.558;2022-10-22T02:27:15;84850.60;;;4.54
69597;BMP180;56802;51.184;-115.558;2022-10-22T02:30:11;84851.60;;;4.60
69597;BMP180;56802;51.184;-115.558;2022-10-22T02:33:20;84848.40;;;4.60
69597;BMP180;56802;51.184;-115.558;2022-10-22T02:35:51;84852.40;;;4.60
69597;BMP180;56802;51.184;-115.558;2022-10-22T02:38:24;84850.00;;;4.60
69597;BMP180;56802;51.184;-115.558;2022-10-22T02:40:55;84850.00;;;4.60
69597;BMP180;56802;51.184;-115.558;2022-10-22T02:43:24;84846.40;;;4.60
69597;BMP180;56802;51.184;-115.558;2022-10-22T02:45:56;84845.20;;;4.56
69597;BMP180;56802;51.184;-115.558;2022-10-22T02:48:25;84842.20;;;4.50
69597;BMP180;56802;51.184;-115.558;2022-10-22T02:50:54;84844.20;;;4.50
69597;BMP180;56802;51.184;-115.558;2022-10-22T02:53:24;84843.40;;;4.48
69597;BMP180;56802;51.184;-115.558;2022-10-22T02:55:54;84840.80;;;4.42
69597;BMP180;56802;51.184;-115.558;2022-10-22T02:58:23;84839.60;;;4.40
69597;BMP180;56802;51.184;-115.558;2022-10-22T03:00:52;84838.00;;;4.50
69597;BMP180;56802;51.184;-115.558;2022-10-22T03:03:22;84832.80;;;4.50
69597;BMP180;56802;51.184;-115.558;2022-10-22T03:05:51;84836.60;;;4.50
69597;BMP180;56802;51.184;-115.558;2022-10-22T03:08:21;84835.40;;;4.60
69597;BMP180;56802;51.184;-115.558;2022-10-22T03:10:50;84833.80;;;4.50
69597;BMP180;56802;51.184;-115.558;2022-10-22T03:13:19;84835.60;;;4.52
69597;BMP180;56802;51.184;-115.558;2022-10-22T03:15:49;84834.20;;;4.60
69597;BMP180;56802;51.184;-115.558;2022-10-22T03:18:20;84834.20;;;4.60
69597;BMP180;56802;51.184;-115.558;2022-10-22T03:20:49;84834.80;;;4.54
69597;BMP180;56802;51.184;-115.558;2022-10-22T03:23:19;84830.00;;;4.50
69597;BMP180;56802;51.184;-115.558;2022-10-22T03:25:50;84829.00;;;4.50
69597;BMP180;56802;51.184;-115.558;2022-10-22T03:28:20;84834.60;;;4.50
69597;BMP180;56802;51.184;-115.558;2022-10-22T03:30:49;84829.60;;;4.50
69597;BMP180;56802;51.184;-115.558;2022-10-22T03:33:18;84828.40;;;4.50
69597;BMP180;56802;51.184;-115.558;2022-10-22T03:35:47;84828.20;;;4.50
69597;BMP180;56802;51.184;-115.558;2022-10-22T03:38:17;84830.80;;;4.40
69597;BMP180;56802;51.184;-115.558;2022-10-22T03:40:46;84824.40;;;4.40
69597;BMP180;56802;51.184;-115.558;2022-10-22T03:43:16;84823.00;;;4.36
69597;BMP180;56802;51.184;-115.558;2022-10-22T03:45:45;84825.40;;;4.40
69597;BMP180;56802;51.184;-115.558;2022-10-22T03:48:15;84826.80;;;4.40
69597;BMP180;56802;51.184;-115.558;2022-10-22T03:50:44;84826.00;;;4.40
69597;BMP180;56802;51.184;-115.558;2022-10-22T03:53:13;84825.80;;;4.42
69597;BMP180;56802;51.184;-115.558;2022-10-22T03:55:42;84823.00;;;4.40
69597;BMP180;56802;51.184;-115.558;2022-10-22T03:58:11;84824.80;;;4.40
69597;BMP180;56802;51.184;-115.558;2022-10-22T04:00:40;84820.80;;;4.30
69597;BMP180;56802;51.184;-115.558;2022-10-22T04:03:10;84824.80;;;4.30
69597;BMP180;56802;51.184;-115.558;2022-10-22T04:05:39;84824.20;;;4.30
69597;BMP180;56802;51.184;-115.558;2022-10-22T04:08:08;84823.40;;;4.30
69597;BMP180;56802;51.184;-115.558;2022-10-22T04:10:37;84824.40;;;4.20
69597;BMP180;56802;51.184;-115.558;2022-10-22T04:13:06;84818.60;;;4.10
69597;BMP180;56802;51.184;-115.558;2022-10-22T04:15:35;84820.60;;;4.10
69597;BMP180;56802;51.184;-115.558;2022-10-22T04:18:04;84822.80;;;4.06
69597;BMP180;56802;51.184;-115.558;2022-10-22T04:20:34;84821.00;;;4.10
69597;BMP180;56802;51.184;-115.558;2022-10-22T04:23:03;84825.60;;;4.10
69597;BMP180;56802;51.184;-115.558;2022-10-22T04:25:32;84827.00;;;4.08
69597;BMP180;56802;51.184;-115.558;2022-10-22T04:28:01;84828.40;;;4.00
69597;BMP180;56802;51.184;-115.558;2022-10-22T04:30:30;84823.40;;;4.00
69597;BMP180;56802;51.184;-115.558;2022-10-22T04:33:00;84827.40;;;3.90
69597;BMP180;56802;51.184;-115.558;2022-10-22T04:35:29;84823.80;;;3.90
69597;BMP180;56802;51.184;-115.558;2022-10-22T04:37:58;84829.80;;;3.86
69597;BMP180;56802;51.184;-115.558;2022-10-22T04:40:27;84822.80;;;3.80
69597;BMP180;56802;51.184;-115.558;2022-10-22T04:42:56;84826.20;;;3.80
69597;BMP180;56802;51.184;-115.558;2022-10-22T04:45:25;84826.80;;;3.80
69597;BMP180;56802;51.184;-115.558;2022-10-22T04:47:55;84826.60;;;3.74
69597;BMP180;56802;51.184;-115.558;2022-10-22T04:50:25;84827.60;;;3.70
69597;BMP180;56802;51.184;-115.558;2022-10-22T04:52:54;84830.60;;;3.70
69597;BMP180;56802;51.184;-115.558;2022-10-22T04:55:23;84826.20;;;3.70
69597;BMP180;56802;51.184;-115.558;2022-10-22T04:57:52;84828.20;;;3.70
69597;BMP180;56802;51.184;-115.558;2022-10-22T05:00:21;84835.20;;;3.70
69597;BMP180;56802;51.184;-115.558;2022-10-22T05:02:51;84830.00;;;3.70
69597;BMP180;56802;51.184;-115.558;2022-10-22T05:05:20;84827.00;;;3.70
69597;BMP180;56802;51.184;-115.558;2022-10-22T05:07:50;84829.80;;;3.70
69597;BMP180;56802;51.184;-115.558;2022-10-22T05:10:20;84832.00;;;3.78
69597;BMP180;56802;51.184;-115.558;2022-10-22T05:12:49;84826.00;;;3.80
69597;BMP180;56802;51.184;-115.558;2022-10-22T05:15:18;84825.00;;;3.80
69597;BMP180;56802;51.184;-115.558;2022-10-22T05:17:47;84826.20;;;3.80
69597;BMP180;56802;51.184;-115.558;2022-10-22T05:20:16;84825.80;;;3.80
69597;BMP180;56802;51.184;-115.558;2022-10-22T05:22:45;84825.40;;;3.70
69597;BMP180;56802;51.184;-115.558;2022-10-22T05:25:15;84820.80;;;3.70
69597;BMP180;56802;51.184;-115.558;2022-10-22T05:27:48;84817.40;;;3.70
69597;BMP180;56802;51.184;-115.558;2022-10-22T05:30:18;84820.00;;;3.60
69597;BMP180;56802;51.184;-115.558;2022-10-22T05:32:47;84816.00;;;3.60
69597;BMP180;56802;51.184;-115.558;2022-10-22T05:35:16;84811.80;;;3.60
69597;BMP180;56802;51.184;-115.558;2022-10-22T05:37:45;84812.60;;;3.60
69597;BMP180;56802;51.184;-115.558;2022-10-22T05:40:14;84812.00;;;3.60
69597;BMP180;56802;51.184;-115.558;2022-10-22T05:42:58;84810.40;;;3.70
69597;BMP180;56802;51.184;-115.558;2022-10-22T05:45:27;84812.40;;;3.70
69597;BMP180;56802;51.184;-115.558;2022-10-22T05:47:57;84810.20;;;3.70
69597;BMP180;56802;51.184;-115.558;2022-10-22T05:50:26;84807.00;;;3.60
69597;BMP180;56802;51.184;-115.558;2022-10-22T05:52:56;84808.60;;;3.60
69597;BMP180;56802;51.184;-115.558;2022-10-22T05:55:25;84811.20;;;3.62
69597;BMP180;56802;51.184;-115.558;2022-10-22T05:57:54;84808.00;;;3.60
69597;BMP180;56802;51.184;-115.558;2022-10-22T06:00:23;84807.60;;;3.50
69597;BMP180;56802;51.184;-115.558;2022-10-22T06:02:52;84803.80;;;3.54
69597;BMP180;56802;51.184;-115.558;2022-10-22T06:05:22;84802.20;;;3.50
69597;BMP180;56802;51.184;-115.558;2022-10-22T06:07:51;84801.80;;;3.50
69597;BMP180;56802;51.184;-115.558;2022-10-22T06:10:21;84805.80;;;3.50
69597;BMP180;56802;51.184;-115.558;2022-10-22T06:12:51;84801.40;;;3.50
69597;BMP180;56802;51.184;-115.558;2022-10-22T06:15:20;84802.60;;;3.50
69597;BMP180;56802;51.184;-115.558;2022-10-22T06:17:49;84803.80;;;3.50
69597;BMP180;56802;51.184;-115.558;2022-10-22T06:20:19;84801.40;;;3.58
69597;BMP180;56802;51.184;-115.558;2022-10-22T06:22:47;84801.80;;;3.60
69597;BMP180;56802;51.184;-115.558;2022-10-22T06:25:17;84797.80;;;3.60
69597;BMP180;56802;51.184;-115.558;2022-10-22T06:27:49;84797.60;;;3.60
69597;BMP180;56802;51.184;-115.558;2022-10-22T06:30:21;84801.40;;;3.60
69597;BMP180;56802;51.184;-115.558;2022-10-22T06:32:51;84798.40;;;3.60
69597;BMP180;56802;51.184;-115.558;2022-10-22T06:35:20;84800.60;;;3.50
69597;BMP180;56802;51.184;-115.558;2022-10-22T06:37:49;84805.00;;;3.48
69597;BMP180;56802;51.184;-115.558;2022-10-22T06:40:18;84801.20;;;3.40
69597;BMP180;56802;51.184;-115.558;2022-10-22T06:42:47;84803.80;;;3.38
69597;BMP180;56802;51.184;-115.558;2022-10-22T06:45:16;84803.80;;;3.30
69597;BMP180;56802;51.184;-115.558;2022-10-22T06:47:46;84809.40;;;3.30
69597;BMP180;56802;51.184;-115.558;2022-10-22T06:50:16;84811.40;;;3.30
69597;BMP180;56802;51.184;-115.558;2022-10-22T06:52:45;84810.80;;;3.20
69597;BMP180;56802;51.184;-115.558;2022-10-22T06:55:14;84813.00;;;3.12
69597;BMP180;56802;51.184;-115.558;2022-10-22T06:57:43;84821.20;;;3.08
69597;BMP180;56802;51.184;-115.558;2022-10-22T07:00:13;84820.40;;;2.96
69597;BMP180;56802;51.184;-115.558;2022-10-22T07:02:43;84813.40;;;2.80
69597;BMP180;56802;51.184;-115.558;2022-10-22T07:05:12;84818.00;;;2.80
69597;BMP180;56802;51.184;-115.558;2022-10-22T07:07:41;84827.00;;;2.70
69597;BMP180;56802;51.184;-115.558;2022-10-22T07:10:10;84821.00;;;2.50
69597;BMP180;56802;51.184;-115.558;2022-10-22T07:12:39;84817.40;;;2.40
69597;BMP180;56802;51.184;-115.558;2022-10-22T07:15:10;84824.80;;;2.30
69597;BMP180;56802;51.184;-115.558;2022-10-22T07:17:39;84822.80;;;2.20
69597;BMP180;56802;51.184;-115.558;2022-10-22T07:20:09;84827.20;;;2.10
69597;BMP180;56802;51.184;-115.558;2022-10-22T07:22:40;84830.80;;;2.02
69597;BMP180;56802;51.184;-115.558;2022-10-22T07:25:10;84834.40;;;2.00
69597;BMP180;56802;51.184;-115.558;2022-10-22T07:27:39;84839.00;;;2.00
69597;BMP180;56802;51.184;-115.558;2022-10-22T07:30:09;84840.80;;;1.96
69597;BMP180;56802;51.184;-115.558;2022-10-22T07:32:38;84840.60;;;1.90
69597;BMP180;56802;51.184;-115.558;2022-10-22T07:35:08;84844.80;;;1.82
69597;BMP180;56802;51.184;-115.558;2022-10-22T07:37:37;84842.40;;;1.80
69597;BMP180;56802;51.184;-115.558;2022-10-22T07:40:08;84836.00;;;1.80
69597;BMP180;56802;51.184;-115.558;2022-10-22T07:42:37;84842.60;;;1.80
69597;BMP180;56802;51.184;-115.558;2022-10-22T07:45:07;84847.60;;;1.80
69597;BMP180;56802;51.184;-115.558;2022-10-22T07:47:36;84843.80;;;1.90
69597;BMP180;56802;51.184;-115.558;2022-10-22T07:50:06;84842.20;;;1.90
69597;BMP180;56802;51.184;-115.558;2022-10-22T07:52:35;84844.80;;;1.90
69597;BMP180;56802;51.184;-115.558;2022-10-22T07:55:05;84847.60;;;1.90
69597;BMP180;56802;51.184;-115.558;2022-10-22T07:57:35;84847.20;;;1.90
69597;BMP180;56802;51.184;-115.558;2022-10-22T08:00:08;84847.80;;;1.90
69597;BMP180;56802;51.184;-115.558;2022-10-22T08:02:37;84847.00;;;1.94
69597;BMP180;56802;51.184;-115.558;2022-10-22T08:05:07;84848.00;;;2.00
69597;BMP180;56802;51.184;-115.558;2022-10-22T08:07:36;84850.60;;;1.90
69597;BMP180;56802;51.184;-115.558;2022-10-22T08:10:07;84852.80;;;1.96
69597;BMP180;56802;51.184;-115.558;2022-10-22T08:12:38;84850.40;;;2.00
69597;BMP180;56802;51.184;-115.558;2022-10-22T08:15:08;84850.80;;;2.00
69597;BMP180;56802;51.184;-115.558;2022-10-22T08:17:38;84852.80;;;2.00
69597;BMP180;56802;51.184;-115.558;2022-10-22T08:20:08;84851.40;;;2.00
69597;BMP180;56802;51.184;-115.558;2022-10-22T08:22:39;84856.20;;;2.08
69597;BMP180;56802;51.184;-115.558;2022-10-22T08:25:09;84853.60;;;2.08
69597;BMP180;56802;51.184;-115.558;2022-10-22T08:27:38;84856.80;;;2.10
69597;BMP180;56802;51.184;-115.558;2022-10-22T08:30:09;84855.00;;;2.10
69597;BMP180;56802;51.184;-115.558;2022-10-22T08:32:38;84850.20;;;2.10
69597;BMP180;56802;51.184;-115.558;2022-10-22T08:35:08;84850.20;;;2.10
69597;BMP180;56802;51.184;-115.558;2022-10-22T08:37:43;84856.20;;;2.10
69597;BMP180;56802;51.184;-115.558;2022-10-22T08:40:27;84856.60;;;2.08
69597;BMP180;56802;51.184;-115.558;2022-10-22T08:48:51;84861.00;;;2.00
69597;BMP180;56802;51.184;-115.558;2022-10-22T08:51:29;84859.40;;;2.00
69597;BMP180;56802;51.184;-115.558;2022-10-22T08:54:27;84855.20;;;2.00
69597;BMP180;56802;51.184;-115.558;2022-10-22T09:00:00;84857.20;;;1.90
69597;BMP180;56802;51.184;-115.558;2022-10-22T09:06:08;84862.20;;;1.74
69597;BMP180;56802;51.184;-115.558;2022-10-22T09:08:40;84858.60;;;1.66
69597;BMP180;56802;51.184;-115.558;2022-10-22T09:11:15;84858.20;;;1.60
69597;BMP180;56802;51.184;-115.558;2022-10-22T09:13:46;84856.80;;;1.54
69597;BMP180;56802;51.184;-115.558;2022-10-22T09:16:35;84860.80;;;1.50
69597;BMP180;56802;51.184;-115.558;2022-10-22T09:25:01;84868.40;;;1.42
69597;BMP180;56802;51.184;-115.558;2022-10-22T09:27:37;84870.20;;;1.40
69597;BMP180;56802;51.184;-115.558;2022-10-22T09:30:19;84866.20;;;1.44
69597;BMP180;56802;51.184;-115.558;2022-10-22T09:35:51;84875.20;;;1.40
69597;BMP180;56802;51.184;-115.558;2022-10-22T09:38:27;84874.60;;;1.30
69597;BMP180;56802;51.184;-115.558;2022-10-22T09:41:00;84873.00;;;1.30
69597;BMP180;56802;51.184;-115.558;2022-10-22T09:43:32;84872.40;;;1.28
69597;BMP180;56802;51.184;-115.558;2022-10-22T09:46:06;84870.80;;;1.20
69597;BMP180;56802;51.184;-115.558;2022-10-22T09:48:40;84869.20;;;1.20
69597;BMP180;56802;51.184;-115.558;2022-10-22T09:51:21;84871.60;;;1.20
69597;BMP180;56802;51.184;-115.558;2022-10-22T09:54:00;84874.60;;;1.20
69597;BMP180;56802;51.184;-115.558;2022-10-22T09:56:39;84874.60;;;1.18
69597;BMP180;56802;51.184;-115.558;2022-10-22T09:59:29;84872.60;;;1.20
69597;BMP180;56802;51.184;-115.558;2022-10-22T10:02:05;84877.60;;;1.20
69597;BMP180;56802;51.184;-115.558;2022-10-22T10:04:55;84876.80;;;1.18
69597;BMP180;56802;51.184;-115.558;2022-10-22T10:07:29;84874.60;;;1.14
69597;BMP180;56802;51.184;-115.558;2022-10-22T10:09:59;84876.60;;;1.18
69597;BMP180;56802;51.184;-115.558;2022-10-22T10:13:00;84876.20;;;1.20
69597;BMP180;56802;51.184;-115.558;2022-10-22T10:15:54;84876.20;;;1.20
69597;BMP180;56802;51.184;-115.558;2022-10-22T10:24:51;84882.20;;;1.12
69597;BMP180;56802;51.184;-115.558;2022-10-22T10:27:43;84884.80;;;1.12
69597;BMP180;56802;51.184;-115.558;2022-10-22T10:30:20;84879.80;;;1.12
69597;BMP180;56802;51.184;-115.558;2022-10-22T10:33:32;84880.80;;;1.16
69597;BMP180;56802;51.184;-115.558;2022-10-22T10:36:23;84878.00;;;1.10
69597;BMP180;56802;51.184;-115.558;2022-10-22T10:39:05;84883.40;;;1.10
69597;BMP180;56802;51.184;-115.558;2022-10-22T10:47:53;84873.00;;;1.10
69597;BMP180;56802;51.184;-115.558;2022-10-22T10:51:12;84875.40;;;1.10
69597;BMP180;56802;51.184;-115.558;2022-10-22T10:57:38;84874.80;;;1.10
69597;BMP180;56802;51.184;-115.558;2022-10-22T11:00:15;84877.00;;;1.10
69597;BMP180;56802;51.184;-115.558;2022-10-22T11:05:44;84882.60;;;1.14
69597;BMP180;56802;51.184;-115.558;2022-10-22T11:11:41;84878.80;;;1.10
69597;BMP180;56802;51.184;-115.558;2022-10-22T11:17:13;84882.40;;;1.10
69597;BMP180;56802;51.184;-115.558;2022-10-22T11:19:52;84881.20;;;1.04
69597;BMP180;56802;51.184;-115.558;2022-10-22T11:22:37;84887.40;;;1.00
69597;BMP180;56802;51.184;-115.558;2022-10-22T11:25:37;84887.60;;;1.00
69597;BMP180;56802;51.184;-115.558;2022-10-22T11:31:06;84890.40;;;1.00
69597;BMP180;56802;51.184;-115.558;2022-10-22T11:34:12;84891.80;;;1.00
69597;BMP180;56802;51.184;-115.558;2022-10-22T11:37:02;84890.20;;;1.02
69597;BMP180;56802;51.184;-115.558;2022-10-22T11:39:51;84890.20;;;1.00
69597;BMP180;56802;51.184;-115.558;2022-10-22T11:42:33;84895.00;;;1.08
69597;BMP180;56802;51.184;-115.558;2022-10-22T11:45:28;84893.00;;;1.10
69597;BMP180;56802;51.184;-115.558;2022-10-22T11:50:55;84896.00;;;1.10
69597;BMP180;56802;51.184;-115.558;2022-10-22T11:53:34;84901.00;;;1.06
69597;BMP180;56802;51.184;-115.558;2022-10-22T12:01:26;84906.60;;;1.00
69597;BMP180;56802;51.184;-115.558;2022-10-22T12:04:15;84907.00;;;1.00
69597;BMP180;56802;51.184;-115.558;2022-10-22T12:07:02;84912.40;;;1.00
69597;BMP180;56802;51.184;-115.558;2022-10-22T12:09:32;84913.00;;;0.94
69597;BMP180;56802;51.184;-115.558;2022-10-22T12:12:15;84914.20;;;0.98
69597;BMP180;56802;51.184;-115.558;2022-10-22T12:14:56;84916.00;;;0.96
69597;BMP180;56802;51.184;-115.558;2022-10-22T12:17:28;84914.20;;;0.96
69597;BMP180;56802;51.184;-115.558;2022-10-22T12:20:11;84914.20;;;1.00
69597;BMP180;56802;51.184;-115.558;2022-10-22T12:22:41;84920.00;;;0.90
69597;BMP180;56802;51.184;-115.558;2022-10-22T12:25:24;84919.20;;;0.94
69597;BMP180;56802;51.184;-115.558;2022-10-22T12:28:00;84920.60;;;1.00
69597;BMP180;56802;51.184;-115.558;2022-10-22T12:30:33;84920.20;;;1.00
69597;BMP180;56802;51.184;-115.558;2022-10-22T12:33:06;84920.40;;;1.00
69597;BMP180;56802;51.184;-115.558;2022-10-22T12:35:44;84926.00;;;1.00
69597;BMP180;56802;51.184;-115.558;2022-10-22T12:38:21;84924.40;;;1.00
69597;BMP180;56802;51.184;-115.558;2022-10-22T12:40:55;84928.00;;;1.00
69597;BMP180;56802;51.184;-115.558;2022-10-22T12:43:29;84929.60;;;1.00
69597;BMP180;56802;51.184;-115.558;2022-10-22T12:45:59;84933.60;;;1.00
69597;BMP180;56802;51.184;-115.558;2022-10-22T12:48:32;84934.40;;;0.98
69597;BMP180;56802;51.184;-115.558;2022-10-22T12:51:07;84936.60;;;1.00
69597;BMP180;56802;51.184;-115.558;2022-10-22T12:53:47;84942.20;;;0.98
69597;BMP180;56802;51.184;-115.558;2022-10-22T12:56:28;84942.00;;;0.94
69597;BMP180;56802;51.184;-115.558;2022-10-22T12:59:06;84944.00;;;1.00
69597;BMP180;56802;51.184;-115.558;2022-10-22T13:01:43;84941.80;;;1.00
69597;BMP180;56802;51.184;-115.558;2022-10-22T13:07:20;84940.40;;;0.90
69597;BMP180;56802;51.184;-115.558;2022-10-22T13:12:27;84944.40;;;0.92
69597;BMP180;56802;51.184;-115.558;2022-10-22T13:15:38;84943.80;;;0.90
69597;BMP180;56802;51.184;-115.558;2022-10-22T13:18:22;84943.20;;;0.90
69597;BMP180;56802;51.184;-115.558;2022-10-22T13:21:00;84944.60;;;1.00
69597;BMP180;56802;51.184;-115.558;2022-10-22T13:23:33;84946.00;;;1.00
69597;BMP180;56802;51.184;-115.558;2022-10-22T13:26:17;84950.20;;;1.00
69597;BMP180;56802;51.184;-115.558;2022-10-22T13:28:53;84950.80;;;1.00
69597;BMP180;56802;51.184;-115.558;2022-10-22T13:31:31;84950.00;;;1.00
69597;BMP180;56802;51.184;-115.558;2022-10-22T13:34:06;84956.60;;;1.00
69597;BMP180;56802;51.184;-115.558;2022-10-22T13:36:40;84959.60;;;1.00
69597;BMP180;56802;51.184;-115.558;2022-10-22T13:39:22;84958.40;;;1.00
69597;BMP180;56802;51.184;-115.558;2022-10-22T13:41:51;84956.80;;;0.96
69597;BMP180;56802;51.184;-115.558;2022-10-22T13:44:20;84957.40;;;0.90
69597;BMP180;56802;51.184;-115.558;2022-10-22T13:46:50;84962.80;;;0.90
69597;BMP180;56802;51.184;-115.558;2022-10-22T13:49:20;84960.40;;;0.90
69597;BMP180;56802;51.184;-115.558;2022-10-22T13:51:53;84964.40;;;0.90
69597;BMP180;56802;51.184;-115.558;2022-10-22T13:54:24;84960.60;;;0.92
69597;BMP180;56802;51.184;-115.558;2022-10-22T13:56:53;84966.60;;;0.98
69597;BMP180;56802;51.184;-115.558;2022-10-22T13:59:22;84966.40;;;0.90
69597;BMP180;56802;51.184;-115.558;2022-10-22T14:01:51;84965.00;;;0.90
69597;BMP180;56802;51.184;-115.558;2022-10-22T14:04:22;84970.60;;;0.90
69597;BMP180;56802;51.184;-115.558;2022-10-22T14:06:54;84965.20;;;0.92
69597;BMP180;56802;51.184;-115.558;2022-10-22T14:09:27;84973.40;;;0.98
69597;BMP180;56802;51.184;-115.558;2022-10-22T14:11:57;84974.00;;;0.94
69597;BMP180;56802;51.184;-115.558;2022-10-22T14:14:26;84971.80;;;0.90
69597;BMP180;56802;51.184;-115.558;2022-10-22T14:16:55;84977.00;;;0.90
69597;BMP180;56802;51.184;-115.558;2022-10-22T14:19:24;84978.20;;;0.90
69597;BMP180;56802;51.184;-115.558;2022-10-22T14:21:53;84973.00;;;0.82
69597;BMP180;56802;51.184;-115.558;2022-10-22T14:24:22;84972.80;;;0.80
69597;BMP180;56802;51.184;-115.558;2022-10-22T14:26:51;84978.40;;;0.78
69597;BMP180;56802;51.184;-115.558;2022-10-22T14:29:20;84977.80;;;0.80
69597;BMP180;56802;51.184;-115.558;2022-10-22T14:31:50;84980.80;;;0.80
69597;BMP180;56802;51.184;-115.558;2022-10-22T14:34:19;84982.00;;;0.88
69597;BMP180;56802;51.184;-115.558;2022-10-22T14:36:49;84992.60;;;0.90
69597;BMP180;56802;51.184;-115.558;2022-10-22T14:39:18;84993.40;;;0.90
69597;BMP180;56802;51.184;-115.558;2022-10-22T14:41:48;84995.20;;;0.90
69597;BMP180;56802;51.184;-115.558;2022-10-22T14:44:18;85005.20;;;1.00
69597;BMP180;56802;51.184;-115.558;2022-10-22T14:46:47;85004.00;;;1.00
69597;BMP180;56802;51.184;-115.558;2022-10-22T14:49:16;85001.60;;;1.00
69597;BMP180;56802;51.184;-115.558;2022-10-22T14:51:45;85008.40;;;1.04
69597;BMP180;56802;51.184;-115.558;2022-10-22T14:54:14;85006.80;;;1.00
69597;BMP180;56802;51.184;-115.558;2022-10-22T14:56:43;85009.00;;;1.00
69597;BMP180;56802;51.184;-115.558;2022-10-22T14:59:13;85007.40;;;0.90
69597;BMP180;56802;51.184;-115.558;2022-10-22T15:01:43;85008.00;;;0.90
69597;BMP180;56802;51.184;-115.558;2022-10-22T15:04:12;85011.60;;;0.94
69597;BMP180;56802;51.184;-115.558;2022-10-22T15:06:41;85014.20;;;0.92
69597;BMP180;56802;51.184;-115.558;2022-10-22T15:09:10;85021.20;;;0.94
69597;BMP180;56802;51.184;-115.558;2022-10-22T15:11:39;85021.80;;;0.92
69597;BMP180;56802;51.184;-115.558;2022-10-22T15:14:10;85023.00;;;0.90
69597;BMP180;56802;51.184;-115.558;2022-10-22T15:16:39;85024.40;;;0.90
69597;BMP180;56802;51.184;-115.558;2022-10-22T15:19:07;85030.20;;;1.00
69597;BMP180;56802;51.184;-115.558;2022-10-22T15:21:38;85035.40;;;1.00
69597;BMP180;56802;51.184;-115.558;2022-10-22T15:24:08;85038.40;;;1.00
69597;BMP180;56802;51.184;-115.558;2022-10-22T15:26:37;85038.20;;;1.00
69597;BMP180;56802;51.184;-115.558;2022-10-22T15:29:09;85041.40;;;1.10
69597;BMP180;56802;51.184;-115.558;2022-10-22T15:31:54;85040.20;;;1.10
69597;BMP180;56802;51.184;-115.558;2022-10-22T15:34:31;85045.00;;;1.10
69597;BMP180;56802;51.184;-115.558;2022-10-22T15:37:04;85047.40;;;1.10
69597;BMP180;56802;51.184;-115.558;2022-10-22T15:39:34;85048.80;;;1.10
69597;BMP180;56802;51.184;-115.558;2022-10-22T15:42:03;85047.60;;;1.10
69597;BMP180;56802;51.184;-115.558;2022-10-22T15:44:32;85054.00;;;1.10
69597;BMP180;56802;51.184;-115.558;2022-10-22T15:47:04;85057.00;;;1.10
69597;BMP180;56802;51.184;-115.558;2022-10-22T15:49:37;85057.00;;;1.10